Time;durP1;ratioP1;P1;durP2;ratioP2;P2;SDS_P1;SDS_P2;PMS_P1;PMS_P2;Temp;Humidity;BMP_temperature;BMP_pressure;BME280_temperature;BME280_humidity;BME280_pressure;Samples;Min_cycle;Max_cycle;Signal;HPM_P1;HPM_P2
2022/09/07 00:01:04;;;;;;;4.70;2.00;;;23.20;85.00;;;23.53;50.97;98445.63;5026607;27;124531;-78
2022/09/07 00:03:31;;;;;;;4.67;1.87;;;23.20;85.00;;;23.50;51.08;98445.63;5024470;27;123823;-77
2022/09/07 00:05:58;;;;;;;2.30;2.07;;;23.10;84.80;;;23.46;51.11;98440.03;5021245;28;119264;-78
2022/09/07 00:08:43;;;;;;;5.20;2.30;;;23.10;84.80;;;23.42;50.84;98444.84;5021400;27;118992;-80
2022/09/07 00:11:15;;;;;;;3.53;1.87;;;23.00;84.80;;;23.41;51.01;98431.97;5019193;27;123333;-78
2022/09/07 00:13:46;;;;;;;3.53;1.90;;;23.00;84.80;;;23.41;50.78;98436.81;5010194;27;123738;-77
2022/09/07 00:16:23;;;;;;;3.10;2.00;;;23.00;84.90;;;23.41;50.92;98422.72;5036494;28;120400;-80
2022/09/07 00:18:54;;;;;;;4.70;2.03;;;23.00;84.90;;;23.38;50.59;98427.97;5026294;28;118812;-76
2022/09/07 00:21:20;;;;;;;2.20;1.70;;;23.00;84.90;;;23.37;51.00;98417.91;5013338;28;124546;-77
2022/09/07 00:23:49;;;;;;;4.30;1.83;;;22.90;84.80;;;23.34;50.51;98427.16;5011883;28;123866;-78
2022/09/07 00:26:28;;;;;;;4.13;2.60;;;22.90;84.80;;;23.33;50.84;98414.28;5016317;28;119191;-78
2022/09/07 00:29:00;;;;;;;2.33;1.73;;;22.90;84.80;;;23.33;50.86;98419.91;5022398;27;119181;-76
2022/09/07 00:31:28;;;;;;;5.47;1.73;;;22.90;84.80;;;23.32;50.67;98412.69;5012938;28;124042;-76
2022/09/07 00:33:58;;;;;;;2.80;1.70;;;22.90;84.70;;;23.32;50.80;98406.22;5013408;28;123649;-76
2022/09/07 00:36:25;;;;;;;2.17;1.70;;;22.90;84.70;;;23.34;50.82;98396.13;5017036;28;119137;-77
2022/09/07 00:38:52;;;;;;;2.63;1.80;;;22.90;84.70;;;23.40;50.70;98390.09;5012610;28;119135;-77
2022/09/07 00:41:21;;;;;;;2.80;1.83;;;22.90;84.70;;;23.43;50.67;98383.63;5024136;28;123997;-80
2022/09/07 00:43:52;;;;;;;1.83;1.53;;;23.00;84.70;;;23.45;50.43;98393.28;5020611;28;123824;-77
2022/09/07 00:46:27;;;;;;;4.60;1.70;;;23.00;84.60;;;23.44;50.29;98386.03;5019168;28;119540;-77
2022/09/07 00:49:18;;;;;;;2.93;1.90;;;23.00;84.50;;;23.42;50.37;98382.03;5017072;28;119021;-78
2022/09/07 00:52:01;;;;;;;4.40;2.83;;;23.00;84.40;;;23.42;50.55;98368.72;5018370;28;124348;-78
2022/09/07 00:54:55;;;;;;;4.80;2.20;;;23.00;84.50;;;23.43;50.55;98372.34;5013399;28;124094;-76
2022/09/07 00:57:22;;;;;;;4.70;1.87;;;23.00;84.40;;;23.47;50.37;98367.50;5020364;28;119128;-77
2022/09/07 00:59:52;;;;;;;6.50;1.93;;;23.00;84.40;;;23.48;50.35;98366.28;5019961;28;118960;-78
2022/09/07 01:02:19;;;;;;;2.50;1.40;;;23.00;84.40;;;23.48;50.29;98355.00;5019272;27;123551;-78
2022/09/07 01:04:50;;;;;;;3.20;1.90;;;23.00;84.30;;;23.47;50.28;98361.88;5017960;28;123795;-78
2022/09/07 01:07:18;;;;;;;4.50;1.77;;;23.00;84.20;;;23.45;50.20;98367.09;5006342;28;120844;-78
2022/09/07 01:09:46;;;;;;;4.37;1.80;;;23.00;84.20;;;23.42;50.37;98353.84;5027682;28;119052;-78
2022/09/07 01:12:13;;;;;;;3.10;2.00;;;23.00;84.20;;;23.40;50.38;98347.78;5016566;28;124058;-78
2022/09/07 01:14:45;;;;;;;3.83;1.60;;;23.00;84.20;;;23.42;50.40;98348.19;5015736;27;124274;-78
2022/09/07 01:17:15;;;;;;;2.60;1.90;;;23.00;84.30;;;23.42;50.27;98348.19;5024789;28;118617;-79
2022/09/07 01:20:00;;;;;;;3.77;1.60;;;23.00;84.30;;;23.40;50.39;98353.44;5014326;28;119419;-81
2022/09/07 01:23:07;;;;;;;2.13;1.30;;;23.00;84.30;;;23.37;50.30;98353.06;5015625;28;125964;-77
2022/09/07 01:25:39;;;;;;;3.73;1.60;;;23.00;84.20;;;23.35;50.60;98349.84;5024498;27;123936;-79
2022/09/07 01:28:24;;;;;;;2.50;1.70;;;22.90;84.20;;;23.34;50.13;98345.41;5027662;28;117737;-78
2022/09/07 01:30:58;;;;;;;5.10;1.50;;;23.00;84.30;;;23.37;50.35;98353.06;5009152;28;118249;-76
2022/09/07 01:33:43;;;;;;;4.40;1.70;;;22.90;84.30;;;23.37;50.47;98357.88;5017696;28;123287;-79
2022/09/07 01:36:31;;;;;;;2.90;1.77;;;23.00;84.40;;;23.37;50.51;98358.69;5036573;27;123198;-78
2022/09/07 01:39:03;;;;;;;5.40;1.53;;;23.00;84.50;;;23.37;50.54;98369.97;5010833;28;119483;-76
2022/09/07 01:41:37;;;;;;;2.67;1.87;;;22.90;84.40;;;23.41;50.53;98361.50;5005714;28;118295;-77
2022/09/07 01:44:31;;;;;;;2.63;1.80;;;23.00;84.50;;;23.43;50.53;98377.97;5010004;28;123180;-77
2022/09/07 01:47:41;;;;;;;5.23;1.87;;;23.00;84.50;;;23.45;50.55;98382.00;5024927;27;123921;-77
2022/09/07 01:50:44;;;;;;;5.30;2.00;;;23.00;84.60;;;23.43;50.62;98389.25;5019911;28;118552;-77
2022/09/07 01:53:27;;;;;;;3.43;1.97;;;23.00;84.60;;;23.44;50.46;98385.25;5009213;27;118901;-76
2022/09/07 01:56:33;;;;;;;2.23;1.77;;;23.00;84.60;;;23.44;50.59;98385.25;5021840;28;124631;-78
2022/09/07 01:59:26;;;;;;;4.20;2.10;;;23.00;84.70;;;23.45;50.50;98387.63;5023101;27;123011;-78
2022/09/07 02:02:03;;;;;;;1.90;1.47;;;23.00;84.60;;;23.45;50.68;98389.66;5011020;28;120287;-77
2022/09/07 02:05:10;;;;;;;2.77;1.40;;;23.00;84.60;;;23.44;50.75;98394.50;5011978;28;120368;-77
2022/09/07 02:07:47;;;;;;;2.90;1.80;;;23.00;84.60;;;23.48;50.62;98386.84;5008714;28;124183;-78
2022/09/07 02:10:23;;;;;;;4.90;2.70;;;23.00;84.70;;;23.51;50.63;98391.66;5014141;28;123773;-76
2022/09/07 02:12:54;;;;;;;4.03;1.70;;;23.20;84.90;;;23.54;50.48;98387.22;5011562;28;119346;-78
2022/09/07 02:15:37;;;;;;;6.80;1.90;;;23.10;84.80;;;23.56;50.61;98393.22;5013355;28;119105;-76
2022/09/07 02:18:08;;;;;;;6.50;2.10;;;23.10;84.80;;;23.58;50.77;98402.91;5011372;28;124150;-78
2022/09/07 02:20:43;;;;;;;4.83;2.33;;;23.10;84.90;;;23.58;50.69;98404.91;4997489;28;123923;-79
2022/09/07 02:23:35;;;;;;;4.83;2.10;;;23.10;85.00;;;23.59;50.75;98406.53;5013196;28;119329;-78
2022/09/07 02:26:08;;;;;;;5.20;2.00;;;23.20;85.10;;;23.61;50.70;98406.91;5018111;27;118436;-78
2022/09/07 02:28:37;;;;;;;5.23;2.20;;;23.10;85.10;;;23.61;50.90;98406.91;5011268;28;123985;-78
2022/09/07 02:31:05;;;;;;;5.10;2.00;;;23.20;85.30;;;23.61;50.82;98412.56;5014859;28;124148;-78
2022/09/07 02:33:32;;;;;;;2.03;1.70;;;23.10;85.20;;;23.61;51.01;98404.09;5011717;28;119146;-77
2022/09/07 02:36:00;;;;;;;4.47;2.00;;;23.20;85.50;;;23.60;51.04;98408.94;4995968;28;119023;-78
2022/09/07 02:38:27;;;;;;;3.53;1.70;;;23.10;85.50;;;23.60;51.27;98405.31;5016851;27;123921;-79
2022/09/07 02:40:58;;;;;;;6.50;2.40;;;23.20;85.60;;;23.58;51.24;98404.91;5008381;28;123856;-78
2022/09/07 02:43:26;;;;;;;7.20;2.70;;;23.10;85.70;;;23.55;51.26;98433.94;5017328;28;119319;-78
2022/09/07 02:46:10;;;;;;;4.20;1.70;;;23.10;85.80;;;23.54;51.28;98457.72;5009048;28;118561;-78
2022/09/07 02:48:49;;;;;;;6.07;2.00;;;23.10;85.90;;;23.53;51.70;98456.91;5019947;27;124341;-78
2022/09/07 02:51:45;;;;;;;2.87;2.00;;;23.10;86.10;;;23.52;51.65;98474.25;5017863;28;123690;-77
2022/09/07 02:54:46;;;;;;;5.03;2.20;;;23.10;86.70;;;23.47;52.01;98467.00;5016520;28;120158;-78
2022/09/07 02:57:36;;;;;;;7.67;2.40;;;23.00;86.90;;;23.44;52.36;98462.19;5017167;28;119321;-78
2022/09/07 03:00:14;;;;;;;4.07;2.10;;;23.10;87.40;;;23.46;52.35;98459.75;5025082;27;124007;-78
2022/09/07 03:03:08;;;;;;;6.37;2.53;;;23.00;87.50;;;23.48;52.35;98464.97;5013193;28;123736;-78
2022/09/07 03:05:49;;;;;;;4.40;1.97;;;23.00;87.60;;;23.51;52.59;98455.72;5006856;28;118784;-79
2022/09/07 03:08:38;;;;;;;3.43;2.30;;;23.10;87.80;;;23.53;52.50;98468.19;5023782;28;119065;-78
2022/09/07 03:11:06;;;;;;;5.17;2.00;;;23.10;87.80;;;23.53;52.72;98467.38;5018411;28;123946;-79
2022/09/07 03:13:33;;;;;;;12.20;2.80;;;23.10;88.00;;;23.50;52.80;98468.19;5010623;27;123589;-79
2022/09/07 03:16:00;;;;;;;2.90;2.57;;;23.10;88.00;;;23.48;52.83;98470.63;5003905;28;118652;-79
2022/09/07 03:18:28;;;;;;;4.03;2.00;;;23.00;87.90;;;23.49;52.70;98460.97;5031867;27;119028;-78
2022/09/07 03:20:55;;;;;;;3.80;2.10;;;23.10;88.00;;;23.50;52.43;98459.75;5016778;28;124119;-78
2022/09/07 03:23:22;;;;;;;4.53;2.27;;;23.10;87.90;;;23.53;52.31;98468.19;5014980;28;122510;-79
2022/09/07 03:25:49;;;;;;;2.80;1.90;;;23.10;87.90;;;23.55;52.62;98457.31;5012029;28;119378;-79
2022/09/07 03:28:17;;;;;;;2.70;2.10;;;23.10;87.90;;;23.58;52.54;98455.69;5012870;28;120154;-78
2022/09/07 03:30:46;;;;;;;6.57;1.87;;;23.10;87.90;;;23.58;52.54;98450.03;5021694;28;123968;-78
2022/09/07 03:33:14;;;;;;;2.23;1.90;;;23.10;87.90;;;23.59;52.48;98458.09;5018577;27;124163;-80
2022/09/07 03:35:45;;;;;;;7.40;2.10;;;23.10;87.90;;;23.60;52.52;98451.25;5017205;28;119381;-78
2022/09/07 03:38:14;;;;;;;6.03;2.57;;;23.10;87.90;;;23.60;52.37;98458.91;5019656;28;118132;-78
2022/09/07 03:40:41;;;;;;;4.67;2.50;;;23.10;87.90;;;23.63;52.65;98460.91;5010329;28;124337;-79
2022/09/07 03:43:07;;;;;;;4.27;2.53;;;23.20;88.00;;;23.63;52.15;98460.09;5035593;28;123911;-84
2022/09/07 03:45:34;;;;;;;4.03;2.10;;;23.20;87.90;;;23.63;52.20;98460.91;5027125;28;121406;-78
2022/09/07 03:48:00;;;;;;;7.50;2.17;;;23.20;87.80;;;23.63;52.31;98455.25;5026092;27;119858;-77
2022/09/07 03:50:28;;;;;;;3.23;2.13;;;23.20;87.80;;;23.63;52.34;98460.09;5023887;28;124310;-75
2022/09/07 03:52:54;;;;;;;2.53;1.93;;;23.20;87.90;;;23.62;52.44;98466.97;5023734;28;124757;-77
2022/09/07 03:55:21;;;;;;;4.93;2.30;;;23.20;88.00;;;23.59;52.50;98460.13;5027137;28;119276;-78
2022/09/07 03:57:47;;;;;;;10.87;3.30;;;23.10;87.90;;;23.54;52.83;98452.88;5021506;28;119015;-77
2022/09/07 04:00:14;;;;;;;6.67;2.47;;;23.10;88.10;;;23.51;52.91;98458.56;5012827;28;124347;-77
2022/09/07 04:02:41;;;;;;;6.83;2.30;;;23.10;88.30;;;23.49;53.04;98463.78;5019753;27;123869;-78
2022/09/07 04:05:08;;;;;;;3.63;1.90;;;23.10;88.40;;;23.47;52.98;98461.34;5016448;28;119450;-77
2022/09/07 04:07:35;;;;;;;4.47;2.30;;;23.00;88.40;;;23.46;52.94;98471.03;4996564;28;118599;-78
2022/09/07 04:10:02;;;;;;;3.93;2.10;;;23.00;88.50;;;23.45;53.01;98477.88;5001835;28;124171;-76
2022/09/07 04:12:31;;;;;;;2.33;1.93;;;23.00;89.30;;;23.44;53.15;98481.13;5001392;28;124033;-78
2022/09/07 04:14:58;;;;;;;5.20;2.50;;;23.00;88.70;;;23.43;53.04;98482.31;5001343;28;119753;-78
2022/09/07 04:17:24;;;;;;;5.00;2.30;;;23.00;88.70;;;23.41;53.24;98465.81;4996798;28;118857;-79
2022/09/07 04:19:51;;;;;;;2.70;2.10;;;23.00;88.80;;;23.40;53.17;98480.31;4988855;28;123965;-78
2022/09/07 04:22:18;;;;;;;5.17;2.40;;;22.90;88.90;;;23.40;53.17;98478.31;4998500;28;124322;-78
2022/09/07 04:24:44;;;;;;;5.80;2.63;;;23.00;89.10;;;23.40;53.48;98472.69;4990716;28;119307;-80
2022/09/07 04:27:11;;;;;;;5.20;2.40;;;22.90;89.10;;;23.40;53.33;98475.50;4987501;28;119141;-78
2022/09/07 04:29:38;;;;;;;3.70;2.37;;;23.00;89.30;;;23.40;53.56;98474.66;4989883;28;124037;-79
2022/09/07 04:32:04;;;;;;;6.13;2.53;;;23.00;89.40;;;23.40;53.77;98478.31;5007238;28;123342;-77
2022/09/07 04:34:31;;;;;;;3.37;2.00;;;22.90;89.40;;;23.41;53.60;98476.28;4994155;28;120457;-78
2022/09/07 04:36:57;;;;;;;3.53;2.07;;;23.00;89.50;;;23.39;53.55;98473.88;5001057;28;119724;-78
2022/09/07 04:39:24;;;;;;;3.30;2.23;;;22.90;89.50;;;23.40;53.43;98480.31;5000489;28;122996;-79
2022/09/07 04:41:51;;;;;;;5.73;2.77;;;23.00;89.60;;;23.38;53.61;98478.72;4996204;28;123684;-79
2022/09/07 04:44:17;;;;;;;6.17;2.20;;;22.90;89.60;;;23.37;53.77;98474.28;4990398;28;119189;-79
2022/09/07 04:46:44;;;;;;;3.50;2.43;;;22.90;89.60;;;23.36;53.71;98469.84;5001191;28;119109;-79
2022/09/07 04:49:11;;;;;;;4.57;2.80;;;22.90;89.70;;;23.38;53.96;98472.28;4996457;28;124664;-80
2022/09/07 04:51:38;;;;;;;3.93;2.47;;;22.90;89.80;;;23.37;53.65;98468.66;4995679;28;123817;-80
2022/09/07 04:54:05;;;;;;;3.90;2.40;;;22.90;89.90;;;23.37;53.67;98470.66;4991203;28;119384;-80
2022/09/07 04:56:32;;;;;;;4.97;2.53;;;22.90;89.90;;;23.35;53.76;98473.09;4996309;28;118965;-81
2022/09/07 04:59:00;;;;;;;4.83;2.20;;;23.20;90.10;;;23.34;53.72;98463.81;4996822;28;123444;-80
2022/09/07 05:01:27;;;;;;;5.83;2.87;;;22.90;90.00;;;23.34;53.70;98465.81;4986993;28;124008;-80
2022/09/07 05:03:54;;;;;;;3.53;2.20;;;22.90;90.00;;;23.33;53.72;98473.47;5000344;28;119359;-80
2022/09/07 05:06:22;;;;;;;4.73;2.53;;;22.90;90.00;;;23.32;53.83;98474.72;5007341;28;119455;-79
2022/09/07 05:08:52;;;;;;;5.83;2.73;;;22.90;90.00;;;23.31;53.78;98475.91;5016672;28;124571;-82
2022/09/07 05:11:21;;;;;;;4.70;2.70;;;22.90;90.00;;;23.31;53.68;98475.91;5009486;27;123773;-78
2022/09/07 05:13:48;;;;;;;5.10;2.50;;;22.90;90.10;;;23.32;53.96;98483.16;5013381;27;119476;-80
2022/09/07 05:16:19;;;;;;;5.40;2.90;;;22.90;90.10;;;23.32;54.09;98480.34;5027563;27;118608;-80
2022/09/07 05:18:58;;;;;;;5.17;2.70;;;22.90;90.10;;;23.32;54.01;98480.34;5022580;27;124486;-78
2022/09/07 05:21:29;;;;;;;7.73;3.13;;;22.90;90.20;;;23.31;54.05;98475.91;5011457;28;123990;-80
2022/09/07 05:23:57;;;;;;;4.33;2.70;;;22.90;90.20;;;23.31;54.16;98481.53;5013256;28;120336;-80
2022/09/07 05:26:27;;;;;;;4.77;2.50;;;22.90;90.30;;;23.30;54.35;98476.31;5021681;27;120215;-79
2022/09/07 05:28:55;;;;;;;5.50;2.40;;;22.90;90.30;;;23.31;54.42;98467.44;5008731;28;124139;-79
2022/09/07 05:31:22;;;;;;;4.20;2.33;;;22.90;90.40;;;23.31;54.49;98467.44;5022872;28;122760;-79
2022/09/07 05:33:52;;;;;;;4.83;2.23;;;22.90;90.40;;;23.32;54.56;98463.44;5009683;28;119070;-78
2022/09/07 05:36:27;;;;;;;3.47;2.50;;;22.90;90.40;;;23.33;54.41;98470.66;5016469;28;119571;-78
2022/09/07 05:38:55;;;;;;;3.30;2.23;;;22.90;90.50;;;23.37;54.32;98481.94;5025885;27;124157;-79
2022/09/07 05:41:24;;;;;;;5.30;2.77;;;22.90;90.50;;;23.40;54.34;98481.13;5004621;27;123627;-81
2022/09/07 05:43:52;;;;;;;5.20;2.73;;;22.90;90.60;;;23.41;54.35;98493.22;5001303;28;118451;-87
2022/09/07 05:46:19;;;;;;;6.30;2.67;;;22.90;90.60;;;23.43;54.26;98491.59;5021331;28;120584;-78
2022/09/07 05:48:46;;;;;;;7.33;2.63;;;22.90;90.50;;;23.44;54.47;98487.56;5024273;27;123571;-81
2022/09/07 05:51:13;;;;;;;2.77;2.30;;;22.90;90.50;;;23.47;54.23;98495.19;5019846;28;123764;-77
2022/09/07 05:53:43;;;;;;;2.90;2.33;;;23.00;90.60;;;23.50;54.31;98496.41;5021919;28;119278;-78
2022/09/07 05:56:11;;;;;;;7.00;3.00;;;23.00;90.60;;;23.54;54.21;98491.56;5013767;28;117457;-80
2022/09/07 05:58:38;;;;;;;4.70;2.40;;;23.00;90.60;;;23.59;54.16;98488.34;5035116;27;123855;-79
2022/09/07 06:01:10;;;;;;;2.70;2.10;;;23.00;90.50;;;23.62;54.10;98489.53;5022967;28;123762;-79
2022/09/07 06:03:39;;;;;;;2.80;2.07;;;23.10;90.50;;;23.66;53.83;98488.28;5023840;28;119015;-79
2022/09/07 06:06:13;;;;;;;3.27;2.60;;;23.10;90.50;;;23.70;53.85;98499.59;5015854;28;119487;-79
2022/09/07 06:08:52;;;;;;;8.40;2.60;;;23.10;90.50;;;23.70;53.74;98497.56;5038821;27;124170;-79
2022/09/07 06:11:23;;;;;;;6.95;3.00;;;23.20;90.40;;;23.73;53.54;98498.78;5011030;28;123816;-80
2022/09/07 06:13:50;;;;;;;4.03;2.13;;;23.20;90.40;;;23.76;53.36;98497.97;5020269;28;120839;-80
2022/09/07 06:16:18;;;;;;;4.37;2.67;;;23.20;90.40;;;23.80;53.55;98499.56;5024599;28;119866;-80
2022/09/07 06:18:47;;;;;;;3.67;2.50;;;23.20;90.40;;;23.87;53.67;98501.56;5022365;28;123949;-81
2022/09/07 06:21:17;;;;;;;5.33;2.30;;;23.30;90.40;;;23.95;53.43;98493.88;5010540;28;123881;-78
2022/09/07 06:23:46;;;;;;;7.23;2.33;;;23.40;90.40;;;23.99;53.46;98492.66;5009954;28;119742;-80
2022/09/07 06:26:15;;;;;;;4.20;2.57;;;23.40;90.30;;;24.07;53.26;98489.75;5016028;28;118909;-79
2022/09/07 06:28:44;;;;;;;5.37;2.50;;;23.50;90.40;;;24.13;53.11;98488.94;5021767;28;124170;-78
2022/09/07 06:31:14;;;;;;;4.13;2.27;;;23.50;90.30;;;24.20;53.08;98486.06;5019681;28;123877;-80
2022/09/07 06:33:43;;;;;;;4.13;2.23;;;23.60;90.20;;;24.29;52.90;98485.63;5023474;28;119966;-82
2022/09/07 06:36:16;;;;;;;4.93;2.53;;;23.60;90.10;;;24.36;52.71;98481.94;5021026;28;119032;-80
2022/09/07 06:38:44;;;;;;;2.67;1.80;;;23.70;90.00;;;24.41;52.09;98482.31;5018324;27;124890;-84
2022/09/07 06:41:21;;;;;;;7.07;3.00;;;23.80;90.00;;;24.50;51.97;98476.22;5021694;28;124031;-86
2022/09/07 06:43:48;;;;;;;4.20;2.37;;;23.90;89.80;;;24.57;51.70;98466.91;5017102;28;119896;-78
2022/09/07 06:46:15;;;;;;;5.20;2.60;;;23.90;89.50;;;24.57;51.63;98467.72;5018776;28;118851;-78
2022/09/07 06:48:42;;;;;;;7.60;2.60;;;24.00;89.40;;;24.60;51.58;98463.25;5014538;27;124263;-78
2022/09/07 06:51:19;;;;;;;5.60;1.97;;;24.00;89.20;;;24.60;51.76;98468.91;5014028;28;124186;-87
2022/09/07 06:53:47;;;;;;;8.43;2.50;;;24.00;89.20;;;24.63;51.72;98477.34;5017087;28;119519;-78
2022/09/07 06:56:17;;;;;;;11.53;4.30;;;24.00;89.10;;;24.70;51.93;98479.31;5022226;28;118259;-78
2022/09/07 06:58:44;;;;;;;10.80;3.60;;;24.10;89.20;;;24.72;51.98;98488.19;5027019;28;124276;-77
2022/09/07 07:01:22;;;;;;;12.57;4.20;;;24.10;89.60;;;24.68;52.12;98496.66;5024678;28;123861;-81
2022/09/07 07:03:50;;;;;;;11.13;3.53;;;24.10;89.90;;;24.64;52.10;98487.44;5023517;27;120422;-79
2022/09/07 07:06:17;;;;;;;9.70;3.50;;;24.10;90.00;;;24.64;52.55;98484.63;5020495;28;120030;-81
2022/09/07 07:08:44;;;;;;;7.30;3.30;;;24.10;90.00;;;24.65;52.81;98474.91;5046781;27;124377;-84
2022/09/07 07:11:13;;;;;;;5.67;3.10;;;24.10;90.00;;;24.72;52.34;98478.88;5018558;28;124441;-80
2022/09/07 07:13:42;;;;;;;6.40;3.50;;;24.20;90.10;;;24.81;52.54;98473.59;5029891;28;118473;-83
2022/09/07 07:16:14;;;;;;;7.00;3.10;;;24.20;90.00;;;24.89;52.09;98472.31;5014501;28;96862;-80
2022/09/07 07:18:41;;;;;;;4.87;2.37;;;24.30;89.60;;;24.97;51.34;98482.31;5031159;28;123814;-81
2022/09/07 07:21:31;;;;;;;4.40;2.40;;;24.30;89.20;;;25.09;51.33;98489.47;5026220;27;123892;-86
2022/09/07 07:23:57;;;;;;;5.83;2.80;;;24.40;89.00;;;25.19;50.90;98494.25;4980119;28;119243;-82
2022/09/07 07:26:27;;;;;;;4.63;2.53;;;24.50;88.60;;;25.27;50.52;98501.44;4974273;28;118958;-87
2022/09/07 07:28:55;;;;;;;4.93;1.83;;;24.60;88.30;;;25.31;50.04;98496.59;4972638;28;123348;-85
2022/09/07 07:31:24;;;;;;;4.60;2.33;;;24.70;88.00;;;25.38;49.87;98495.69;4989868;28;123864;-83
2022/09/07 07:33:52;;;;;;;5.60;2.47;;;24.70;87.60;;;25.46;49.99;98505.72;4988576;28;119473;-80
2022/09/07 07:36:46;;;;;;;5.97;2.10;;;24.80;87.50;;;25.50;49.53;98500.81;4970399;28;118929;-82
2022/09/07 07:39:12;;;;;;;3.27;1.70;;;24.90;87.30;;;25.59;49.60;98502.34;4903481;28;125279;-83
2022/09/07 07:41:39;;;;;;;9.63;2.63;;;24.90;87.10;;;25.63;49.38;98508.75;4906652;28;124041;-83
2022/09/07 07:44:05;;;;;;;8.30;2.53;;;24.90;86.70;;;25.64;49.65;98514.00;4904464;28;119403;-78
2022/09/07 07:46:32;;;;;;;5.03;2.30;;;25.00;86.60;;;25.66;49.31;98513.59;4905122;28;118963;-85
2022/09/07 07:48:59;;;;;;;7.63;1.93;;;25.00;86.40;;;25.70;49.53;98517.19;4902600;28;123402;-81
2022/09/07 07:51:26;;;;;;;12.07;2.60;;;25.10;86.40;;;25.77;49.06;98517.09;4903775;28;123598;-84
2022/09/07 07:53:52;;;;;;;4.87;2.33;;;25.10;86.20;;;25.84;49.15;98517.03;4899746;28;120388;-86
2022/09/07 07:56:19;;;;;;;6.60;2.50;;;25.20;86.10;;;25.88;49.04;98517.81;4904373;28;119904;-82
2022/09/07 07:58:47;;;;;;;3.53;2.37;;;25.30;85.80;;;25.90;49.11;98521.03;4904490;28;124116;-82
2022/09/07 08:01:16;;;;;;;8.03;2.30;;;25.30;85.60;;;25.91;49.07;98524.66;4916220;28;124075;-84
2022/09/07 08:03:44;;;;;;;5.20;2.43;;;25.30;85.40;;;25.94;48.55;98523.81;4957172;28;118580;-85
2022/09/07 08:06:18;;;;;;;4.70;2.20;;;25.40;85.20;;;25.98;48.43;98525.38;4960643;28;119267;-78
2022/09/07 08:08:45;;;;;;;4.00;2.03;;;25.40;85.10;;;26.06;48.66;98530.94;4944406;28;124114;-79
2022/09/07 08:11:18;;;;;;;4.23;2.07;;;25.50;85.00;;;26.10;48.35;98538.16;4945678;28;123063;-82
2022/09/07 08:13:48;;;;;;;6.40;2.53;;;25.50;84.90;;;26.15;48.06;98531.25;4956902;28;119336;-84
2022/09/07 08:16:16;;;;;;;4.77;2.13;;;25.50;84.70;;;26.20;48.01;98536.44;4991312;27;118999;-82
2022/09/07 08:18:43;;;;;;;6.27;2.67;;;25.60;84.60;;;26.24;47.90;98537.19;5016599;28;123125;-77
2022/09/07 08:21:12;;;;;;;5.60;2.13;;;25.60;84.20;;;26.27;47.93;98536.31;5017293;28;123699;-83
2022/09/07 08:23:40;;;;;;;6.60;2.73;;;25.70;84.10;;;26.30;47.43;98543.97;5018690;28;119596;-79
2022/09/07 08:26:07;;;;;;;7.60;2.57;;;25.70;84.00;;;26.30;47.49;98541.13;5017076;28;119157;-86
2022/09/07 08:28:38;;;;;;;8.47;2.57;;;25.70;83.30;;;26.30;46.89;98546.00;5022517;28;124729;-82
2022/09/07 08:31:12;;;;;;;8.30;2.30;;;25.80;83.00;;;26.32;46.85;98541.50;5025639;28;122937;-81
2022/09/07 08:33:40;;;;;;;6.33;2.20;;;25.80;82.80;;;26.38;47.00;98547.50;5023631;28;119320;-83
2022/09/07 08:36:11;;;;;;;4.47;2.40;;;25.80;82.60;;;26.41;46.69;98535.31;5022851;28;118790;-81
2022/09/07 08:38:38;;;;;;;4.13;2.07;;;25.80;82.50;;;26.42;47.06;98542.59;5019822;28;124572;-85
2022/09/07 08:41:51;;;;;;;6.57;2.40;;;25.90;82.40;;;26.36;47.14;98539.44;5017691;28;123785;-85
2022/09/07 08:44:47;;;;;;;5.57;2.03;;;25.90;82.40;;;26.42;47.38;98543.41;5019946;28;120260;-82
2022/09/07 08:47:27;;;;;;;4.63;2.07;;;25.90;82.50;;;26.48;47.41;98529.56;5006452;28;120289;-80
2022/09/07 08:50:05;;;;;;;7.23;2.33;;;26.00;82.70;;;26.57;47.19;98535.56;5014245;28;124486;-81
2022/09/07 08:52:59;;;;;;;5.93;1.80;;;26.00;82.50;;;26.61;46.68;98532.66;5016671;27;123090;-81
2022/09/07 08:55:33;;;;;;;3.30;2.27;;;26.10;82.40;;;26.65;46.85;98534.22;5020723;28;119438;-83
2022/09/07 08:58:22;;;;;;;4.27;2.03;;;26.10;82.40;;;26.70;46.74;98534.94;5013214;28;120323;-79
2022/09/07 09:00:49;;;;;;;7.03;2.70;;;26.10;82.00;;;26.72;46.29;98521.94;5015745;28;124044;-82
2022/09/07 09:03:32;;;;;;;5.30;1.93;;;26.10;81.70;;;26.72;46.40;98526.81;5013724;28;124195;-79
2022/09/07 09:06:11;;;;;;;6.43;2.20;;;26.20;81.50;;;26.78;46.54;98525.09;5009351;28;119263;-81
2022/09/07 09:08:49;;;;;;;6.13;2.17;;;26.30;81.60;;;26.83;46.45;98527.47;5008238;28;119343;-82
2022/09/07 09:11:45;;;;;;;4.50;2.23;;;26.30;81.50;;;26.87;46.49;98528.22;5019775;28;123334;-85
2022/09/07 09:14:51;;;;;;;6.00;2.00;;;26.30;81.40;;;26.87;46.29;98531.84;5025449;28;124002;-83
2022/09/07 09:17:28;;;;;;;10.40;3.17;;;26.30;81.30;;;26.88;46.30;98516.44;5008457;28;118979;-83
2022/09/07 09:20:04;;;;;;;4.37;2.63;;;26.40;81.20;;;26.88;45.95;98529.81;5007017;28;119322;-81
2022/09/07 09:22:30;;;;;;;5.70;2.30;;;26.40;80.80;;;26.90;46.25;98518.06;5011555;28;124128;-83
2022/09/07 09:25:22;;;;;;;7.93;2.60;;;26.40;80.70;;;26.89;45.99;98520.06;5015743;27;123957;-80
2022/09/07 09:27:49;;;;;;;5.33;1.83;;;26.50;80.60;;;26.91;45.65;98516.81;5016458;28;119810;-82
2022/09/07 09:30:21;;;;;;;4.53;2.53;;;26.40;80.10;;;26.88;45.86;98510.75;5012854;28;118988;-82
2022/09/07 09:32:52;;;;;;;3.27;1.83;;;26.50;80.00;;;26.92;45.42;98505.06;5012818;28;124080;-78
2022/09/07 09:35:34;;;;;;;7.70;2.27;;;26.50;79.80;;;26.94;45.30;98504.59;5010576;28;122957;-84
2022/09/07 09:38:04;;;;;;;4.40;2.10;;;26.50;79.50;;;26.98;45.39;98506.16;5018515;27;120115;-79
2022/09/07 09:40:35;;;;;;;9.40;2.30;;;26.50;79.60;;;27.04;45.50;98490.25;5014237;27;120242;-80
2022/09/07 09:43:20;;;;;;;7.03;2.33;;;26.60;79.60;;;27.11;45.18;98492.16;5014412;28;124115;-77
2022/09/07 09:45:54;;;;;;;5.57;2.10;;;26.60;79.10;;;27.17;44.92;98492.50;5006525;28;123041;-77
2022/09/07 09:48:32;;;;;;;4.33;1.80;;;26.60;79.20;;;27.18;45.05;98486.38;5009204;27;119411;-77
2022/09/07 09:51:00;;;;;;;3.70;2.00;;;26.70;79.20;;;27.18;45.29;98486.38;5023435;27;118981;-78
2022/09/07 09:53:41;;;;;;;2.90;1.80;;;26.70;79.00;;;27.21;45.09;98496.88;5017398;28;123758;-78
2022/09/07 09:56:08;;;;;;;4.53;2.30;;;26.80;79.10;;;27.26;45.18;98501.25;5010533;28;123398;-77
2022/09/07 09:58:39;;;;;;;3.50;2.03;;;26.80;79.00;;;27.26;45.08;98492.72;5013281;28;119505;-79
2022/09/07 10:01:24;;;;;;;6.87;2.10;;;26.80;79.00;;;27.24;44.82;98489.53;5013970;28;119589;-78
2022/09/07 10:03:51;;;;;;;6.53;2.67;;;26.80;78.40;;;27.23;45.00;98482.25;5010853;28;124244;-83
2022/09/07 10:06:19;;;;;;;7.07;2.50;;;26.80;78.30;;;27.26;44.75;98476.50;5021081;28;124093;-81
2022/09/07 10:09:00;;;;;;;9.40;2.23;;;26.80;78.30;;;27.29;44.93;98475.63;5014219;28;119600;-77
2022/09/07 10:11:49;;;;;;;6.37;2.40;;;26.90;78.30;;;27.30;44.60;98471.59;5011360;28;119352;-75
2022/09/07 10:14:41;;;;;;;4.10;2.50;;;26.90;78.10;;;27.35;44.89;98475.13;5011155;28;123503;-75
2022/09/07 10:17:36;;;;;;;4.20;2.07;;;26.90;78.10;;;27.38;44.88;98465.75;5014951;28;123920;-76
2022/09/07 10:20:14;;;;;;;8.83;2.37;;;27.00;78.10;;;27.43;44.86;98456.75;5006732;28;119556;-76
2022/09/07 10:23:00;;;;;;;3.10;2.00;;;27.00;78.40;;;27.49;44.50;98461.50;5026632;27;118026;-77
2022/09/07 10:25:36;;;;;;;11.30;3.80;;;27.00;78.20;;;27.56;44.17;98457.69;5006978;28;124319;-76
2022/09/07 10:28:22;;;;;;;3.90;2.27;;;27.10;77.80;;;27.58;44.23;98449.56;5008032;28;123922;-76
2022/09/07 10:31:18;;;;;;;5.73;2.50;;;27.10;77.50;;;27.58;44.44;98446.72;5021014;27;119308;-75
2022/09/07 10:34:10;;;;;;;5.23;2.30;;;27.10;77.30;;;27.60;44.16;98449.13;5010108;28;120176;-75
2022/09/07 10:37:03;;;;;;;3.80;2.17;;;27.10;77.30;;;27.61;43.86;98445.84;5003431;28;122821;-76
2022/09/07 10:39:45;;;;;;;6.43;2.30;;;27.20;76.80;;;27.63;43.33;98449.06;5002483;27;124329;-74